createdAt,value
2022-09-02T00:01:23.624Z,60.22
2022-09-02T00:03:50.733Z,60.25
2022-09-02T00:06:18.273Z,60.48
2022-09-02T00:08:45.225Z,59.94
2022-09-02T00:11:14.937Z,60.54
2022-09-02T00:13:42.371Z,60.67
2022-09-02T00:16:09.633Z,60.39
2022-09-02T00:18:37.851Z,60.32
2022-09-02T00:21:04.463Z,60.36
2022-09-02T00:23:31.157Z,60.82
2022-09-02T00:25:57.997Z,61.10
2022-09-02T00:28:24.589Z,61.09
2022-09-02T00:30:51.136Z,60.73
2022-09-02T00:33:18.212Z,58.91
2022-09-02T00:35:46.007Z,59.32
2022-09-02T00:38:12.575Z,59.25
2022-09-02T00:40:43.410Z,58.61
2022-09-02T00:43:11.068Z,58.04
2022-09-02T00:45:37.634Z,61.03
2022-09-02T00:48:04.959Z,61.08
2022-09-02T00:50:35.843Z,60.83
2022-09-02T00:53:08.232Z,60.51
2022-09-02T00:55:40.167Z,60.86
2022-09-02T00:58:13.750Z,60.87
2022-09-02T01:00:44.326Z,60.89
2022-09-02T01:03:14.413Z,60.89
2022-09-02T01:05:43.915Z,60.80
2022-09-02T01:10:57.474Z,61.42
2022-09-02T01:13:26.448Z,61.34
2022-09-02T01:15:55.806Z,61.99
2022-09-02T01:18:27.009Z,60.12
2022-09-02T01:20:53.522Z,59.56
2022-09-02T01:23:21.852Z,58.73
2022-09-02T01:25:48.914Z,59.06
2022-09-02T01:28:18.156Z,58.53
2022-09-02T01:30:48.285Z,58.57
2022-09-02T01:33:15.218Z,58.12
2022-09-02T01:35:41.798Z,58.19
2022-09-02T01:38:09.819Z,61.04
2022-09-02T01:40:38.049Z,60.56
2022-09-02T01:43:07.254Z,61.23
2022-09-02T01:45:34.404Z,60.93
2022-09-02T01:48:01.417Z,61.33
2022-09-02T01:50:28.316Z,60.91
2022-09-02T01:52:54.830Z,61.46
2022-09-02T01:55:21.406Z,61.37
2022-09-02T01:57:49.571Z,61.28
2022-09-02T02:00:16.939Z,61.27
2022-09-02T02:02:43.476Z,61.54
2022-09-02T02:05:10.398Z,61.99
2022-09-02T02:07:37.226Z,61.73
2022-09-02T02:10:05.587Z,59.96
2022-09-02T02:12:32.225Z,59.60
2022-09-02T02:15:01.641Z,59.25
2022-09-02T02:17:28.142Z,58.97
2022-09-02T02:19:54.677Z,59.90
2022-09-02T02:22:21.328Z,59.83
2022-09-02T02:24:47.864Z,59.24
2022-09-02T02:27:14.380Z,60.09
2022-09-02T02:29:41.002Z,62.25
2022-09-02T02:32:09.043Z,61.71
2022-09-02T02:34:35.716Z,61.79
2022-09-02T02:37:02.286Z,62.03
2022-09-02T02:39:28.937Z,61.12
2022-09-02T02:41:55.487Z,60.75
2022-09-02T02:44:22.602Z,60.75
2022-09-02T02:46:49.345Z,60.68
2022-09-02T02:49:17.316Z,60.58
2022-09-02T02:51:43.835Z,60.66
2022-09-02T02:54:10.840Z,60.68
2022-09-02T02:56:37.335Z,61.26
2022-09-02T02:59:03.917Z,60.98
2022-09-02T03:01:31.316Z,58.99
2022-09-02T03:03:58.182Z,59.11
2022-09-02T03:06:26.728Z,59.44
2022-09-02T03:08:53.497Z,58.94
2022-09-02T03:11:20.627Z,58.86
2022-09-02T03:13:47.146Z,58.53
2022-09-02T03:16:13.810Z,58.46
2022-09-02T03:18:40.652Z,61.49
2022-09-02T03:21:08.110Z,61.45
2022-09-02T03:23:36.274Z,61.67
2022-09-02T03:26:03.084Z,61.27
2022-09-02T03:28:29.677Z,61.51
2022-09-02T03:30:56.288Z,61.06
2022-09-02T03:33:23.318Z,61.09
2022-09-02T03:35:50.061Z,61.37
2022-09-02T03:38:16.821Z,61.21
2022-09-02T03:40:44.827Z,61.57
2022-09-02T03:43:11.745Z,61.66
2022-09-02T03:45:38.311Z,61.84
2022-09-02T03:48:04.888Z,62.40
2022-09-02T03:50:36.187Z,60.71
2022-09-02T03:53:03.451Z,59.79
2022-09-02T03:55:30.332Z,59.32
2022-09-02T03:57:59.082Z,59.13
2022-09-02T04:00:27.217Z,59.04
2022-09-02T04:02:53.826Z,58.96
2022-09-02T04:05:20.499Z,58.72
2022-09-02T04:07:47.231Z,58.57
2022-09-02T04:10:14.092Z,58.62
2022-09-02T04:12:40.851Z,61.13
2022-09-02T04:15:11.167Z,62.29
2022-09-02T04:17:38.466Z,64.00
2022-09-02T04:20:06.138Z,63.96
2022-09-02T04:22:33.400Z,64.39
2022-09-02T04:25:00.141Z,64.62
2022-09-02T04:27:26.740Z,65.15
2022-09-02T04:29:53.331Z,65.40
2022-09-02T04:32:21.153Z,66.03
2022-09-02T04:34:49.821Z,66.60
2022-09-02T04:37:16.663Z,65.86
2022-09-02T04:39:43.220Z,65.02
2022-09-02T04:42:09.862Z,64.28
2022-09-02T04:44:36.603Z,62.90
2022-09-02T04:47:03.188Z,62.08
2022-09-02T04:49:30.984Z,61.51
2022-09-02T04:51:57.569Z,61.17
2022-09-02T04:54:24.529Z,60.19
2022-09-02T04:56:51.008Z,59.93
2022-09-02T04:59:17.527Z,60.19
2022-09-02T05:01:44.172Z,59.83
2022-09-02T05:04:11.369Z,62.86
2022-09-02T05:06:43.876Z,62.11
2022-09-02T05:09:11.007Z,61.95
2022-09-02T05:11:37.719Z,62.12
2022-09-02T05:14:06.665Z,62.36
2022-09-02T05:16:35.701Z,61.96
2022-09-02T05:19:04.753Z,62.20
2022-09-02T05:21:31.325Z,62.21
2022-09-02T05:24:01.574Z,62.25
2022-09-02T05:26:28.376Z,62.91
2022-09-02T05:28:54.919Z,62.76
2022-09-02T05:31:21.892Z,62.70
2022-09-02T05:33:48.553Z,62.70
2022-09-02T05:36:18.323Z,61.60
2022-09-02T05:38:45.905Z,60.67
2022-09-02T05:41:16.033Z,60.03
2022-09-02T05:43:43.798Z,59.56
2022-09-02T05:46:13.107Z,59.50
2022-09-02T05:48:39.661Z,59.19
2022-09-02T05:51:07.350Z,59.13
2022-09-02T05:53:33.851Z,61.14
2022-09-02T05:56:04.225Z,60.64
2022-09-02T05:58:32.238Z,60.78
2022-09-02T06:00:58.788Z,60.75
2022-09-02T06:03:25.440Z,61.46
2022-09-02T06:05:55.251Z,61.78
2022-09-02T06:08:21.774Z,61.65
2022-09-02T06:10:48.593Z,61.87
2022-09-02T06:13:15.245Z,61.39
2022-09-02T06:15:44.426Z,61.44
2022-09-02T06:18:11.437Z,62.03
2022-09-02T06:20:41.486Z,62.12
2022-09-02T06:23:08.081Z,60.51
2022-09-02T06:25:36.412Z,60.93
2022-09-02T06:28:07.024Z,60.20
2022-09-02T06:30:35.026Z,59.70
2022-09-02T06:33:02.932Z,59.47
2022-09-02T06:35:29.776Z,59.46
2022-09-02T06:37:56.282Z,59.13
2022-09-02T06:40:22.886Z,61.11
2022-09-02T06:42:49.604Z,60.45
2022-09-02T06:45:16.433Z,60.37
2022-09-02T06:47:42.947Z,59.94
2022-09-02T06:50:10.954Z,60.02
2022-09-02T06:52:37.489Z,59.97
2022-09-02T06:55:04.912Z,60.30
2022-09-02T06:57:34.109Z,59.91
2022-09-02T07:00:02.312Z,59.63
2022-09-02T07:02:29.378Z,59.85
2022-09-02T07:04:57.630Z,60.41
2022-09-02T07:07:25.915Z,60.20
2022-09-02T07:09:52.897Z,60.59
2022-09-02T07:12:19.471Z,61.58
2022-09-02T07:14:45.992Z,60.67
2022-09-02T07:17:14.875Z,60.54
2022-09-02T07:19:41.453Z,62.62
2022-09-02T07:22:08.065Z,62.57
2022-09-02T07:24:36.024Z,63.01
2022-09-02T07:27:02.749Z,62.69
2022-09-02T07:29:29.569Z,62.24
2022-09-02T07:31:56.091Z,63.46
2022-09-02T07:34:23.054Z,62.04
2022-09-02T07:36:50.167Z,62.03
2022-09-02T07:39:18.678Z,62.43
2022-09-02T07:41:48.568Z,62.33
2022-09-02T07:44:16.478Z,63.02
2022-09-02T07:46:44.449Z,61.94
2022-09-02T07:49:14.696Z,62.06
2022-09-02T07:51:45.783Z,61.82
2022-09-02T07:54:13.083Z,62.67
2022-09-02T07:56:39.867Z,62.28
2022-09-02T07:59:07.842Z,62.09
2022-09-02T08:01:35.069Z,61.77
2022-09-02T08:04:05.630Z,62.85
2022-09-02T08:06:35.100Z,65.60
2022-09-02T08:09:02.233Z,64.93
2022-09-02T08:11:28.814Z,65.51
2022-09-02T08:13:55.586Z,65.67
2022-09-02T08:16:24.085Z,66.67
2022-09-02T08:18:50.678Z,66.52
2022-09-02T08:21:17.435Z,66.49
2022-09-02T08:23:44.597Z,65.78
2022-09-02T08:26:11.516Z,66.73
2022-09-02T08:28:38.092Z,67.06
2022-09-02T08:31:06.327Z,66.78
2022-09-02T08:33:34.748Z,66.99
2022-09-02T08:36:03.720Z,66.46
2022-09-02T08:38:30.842Z,65.46
2022-09-02T08:40:57.560Z,64.08
2022-09-02T08:43:31.133Z,63.72
2022-09-02T08:46:02.671Z,63.91
2022-09-02T08:48:38.200Z,64.32
2022-09-02T08:51:09.896Z,63.48
2022-09-02T08:53:44.840Z,62.89
2022-09-02T08:56:11.499Z,63.77
2022-09-02T08:58:41.056Z,62.43
2022-09-02T09:01:14.875Z,62.20
2022-09-02T09:04:04.904Z,61.92
2022-09-02T09:06:36.310Z,61.89
2022-09-02T09:09:13.902Z,61.86
2022-09-02T09:11:49.117Z,61.63
2022-09-02T09:14:24.668Z,61.44
2022-09-02T09:16:58.037Z,61.95
2022-09-02T09:19:37.135Z,62.28
2022-09-02T09:22:03.678Z,61.38
2022-09-02T09:24:36.579Z,61.60
2022-09-02T09:27:07.289Z,61.71
2022-09-02T09:29:34.036Z,60.96
2022-09-02T09:32:00.947Z,61.17
2022-09-02T09:34:57.145Z,61.04
2022-09-02T09:37:35.924Z,60.63
2022-09-02T09:40:23.456Z,61.35
2022-09-02T09:42:55.465Z,60.96
2022-09-02T09:45:30.050Z,60.97
2022-09-02T09:48:20.024Z,61.86
2022-09-02T09:50:47.869Z,61.51
2022-09-02T09:53:18.283Z,60.90
2022-09-02T09:55:54.297Z,61.08
2022-09-02T09:58:22.609Z,61.34
2022-09-02T10:00:51.043Z,61.33
2022-09-02T10:03:23.711Z,60.27
2022-09-02T10:05:54.944Z,60.23
2022-09-02T10:08:24.617Z,61.51
2022-09-02T10:10:58.216Z,61.14
2022-09-02T10:13:28.476Z,62.38
2022-09-02T10:16:22.529Z,62.75
2022-09-02T10:18:55.382Z,63.24
2022-09-02T10:21:44.526Z,62.76
2022-09-02T10:24:32.474Z,63.05
2022-09-02T10:26:59.979Z,63.49
2022-09-02T10:29:48.318Z,63.42
2022-09-02T10:32:25.159Z,63.62
2022-09-02T10:35:03.180Z,63.87
2022-09-02T10:37:38.301Z,63.90
2022-09-02T10:40:12.902Z,64.12
2022-09-02T10:42:48.756Z,64.33
2022-09-02T10:45:23.129Z,63.88
2022-09-02T10:48:01.665Z,62.81
2022-09-02T10:50:37.461Z,63.67
2022-09-02T10:53:22.717Z,63.01
2022-09-02T10:55:56.662Z,62.22
2022-09-02T10:58:35.017Z,62.06
2022-09-02T11:01:02.999Z,62.09
2022-09-02T11:03:33.672Z,61.28
2022-09-02T11:06:07.268Z,61.82
2022-09-02T11:08:38.790Z,61.97
2022-09-02T11:11:11.568Z,61.75
2022-09-02T11:13:48.050Z,61.34
2022-09-02T11:16:18.757Z,61.65
2022-09-02T11:18:54.727Z,60.79
2022-09-02T11:21:32.798Z,60.70
2022-09-02T11:24:04.725Z,60.76
2022-09-02T11:26:38.381Z,61.50
2022-09-02T11:29:09.941Z,62.76
2022-09-02T11:31:42.044Z,61.82
2022-09-02T11:34:18.915Z,62.08
2022-09-02T11:36:46.087Z,63.05
2022-09-02T11:39:25.762Z,62.81
2022-09-02T11:42:15.526Z,63.42
2022-09-02T11:45:09.484Z,64.11
2022-09-02T11:47:52.497Z,64.30
2022-09-02T11:50:42.283Z,64.29
2022-09-02T11:53:20.586Z,63.82
2022-09-02T11:55:52.258Z,63.73
2022-09-02T11:58:34.151Z,64.67
2022-09-02T12:01:06.424Z,63.44
2022-09-02T12:04:06.901Z,61.07
2022-09-02T12:06:32.363Z,61.80
2022-09-02T12:09:04.776Z,62.11
2022-09-02T12:11:45.705Z,62.50
2022-09-02T12:14:48.649Z,60.65
2022-09-02T12:17:34.766Z,60.56
2022-09-02T12:20:01.356Z,61.29
2022-09-02T12:22:35.121Z,61.17
2022-09-02T12:25:01.887Z,60.88
2022-09-02T12:27:33.448Z,60.13
2022-09-02T12:30:00.569Z,60.04
2022-09-02T12:32:56.775Z,60.33
2022-09-02T12:35:34.254Z,59.77
2022-09-02T12:38:21.483Z,61.31
2022-09-02T12:40:56.181Z,60.94
2022-09-02T12:43:27.450Z,60.64
2022-09-02T12:46:06.455Z,61.57
2022-09-02T12:48:39.784Z,64.08
2022-09-02T12:51:10.025Z,64.47
2022-09-02T12:53:41.913Z,64.51
2022-09-02T12:56:20.489Z,63.74
2022-09-02T12:58:50.287Z,64.51
2022-09-02T13:01:21.511Z,65.04
2022-09-02T13:04:11.001Z,65.11
2022-09-02T13:06:56.941Z,65.76
2022-09-02T13:09:54.146Z,67.15
2022-09-02T13:12:41.294Z,65.92
2022-09-02T13:15:23.572Z,66.17
2022-09-02T13:18:18.056Z,66.81
2022-09-02T13:21:05.009Z,64.02
2022-09-02T13:24:07.331Z,62.70
2022-09-02T13:26:54.713Z,62.81
2022-09-02T13:29:47.503Z,63.34
2022-09-02T13:32:20.977Z,63.40
2022-09-02T13:34:50.449Z,62.76
2022-09-02T13:37:32.930Z,61.83
2022-09-02T13:40:04.875Z,62.82
2022-09-02T13:42:32.865Z,61.97
2022-09-02T13:45:12.381Z,62.30
2022-09-02T13:47:42.343Z,62.43
2022-09-02T13:50:11.026Z,62.07
2022-09-02T13:53:34.582Z,62.01
2022-09-02T13:55:28.263Z,61.84
2022-09-02T13:57:58.449Z,61.79
2022-09-02T14:00:28.991Z,61.66
2022-09-02T14:03:00.039Z,61.46
2022-09-02T14:05:27.741Z,61.28
2022-09-02T14:07:57.216Z,61.53
2022-09-02T14:10:27.951Z,61.05
2022-09-02T14:12:56.131Z,61.16
2022-09-02T14:15:26.114Z,60.72
2022-09-02T14:18:08.290Z,60.66
2022-09-02T14:20:35.666Z,60.68
2022-09-02T14:23:02.427Z,61.27
2022-09-02T14:25:36.808Z,60.91
2022-09-02T14:28:10.647Z,60.35
2022-09-02T14:30:39.902Z,60.34
2022-09-02T14:33:25.853Z,60.24
2022-09-02T14:35:57.504Z,59.90
2022-09-02T14:38:26.476Z,60.17
2022-09-02T14:41:02.140Z,59.87
2022-09-02T14:43:39.969Z,59.49
2022-09-02T14:46:13.850Z,58.99
2022-09-02T14:48:40.977Z,58.67
2022-09-02T14:51:08.500Z,58.36
2022-09-02T14:53:36.400Z,58.39
2022-09-02T14:56:05.716Z,58.12
2022-09-02T14:58:32.297Z,58.01
2022-09-02T15:01:00.537Z,58.16
2022-09-02T15:03:28.883Z,58.52
2022-09-02T15:05:55.941Z,59.53
2022-09-02T15:08:23.382Z,59.63
2022-09-02T15:10:51.113Z,59.44
2022-09-02T15:13:26.645Z,59.91
2022-09-02T15:15:53.490Z,59.75
2022-09-02T15:18:20.139Z,59.88
2022-09-02T15:20:46.821Z,59.57
2022-09-02T15:23:14.165Z,60.36
2022-09-02T15:25:41.018Z,60.14
2022-09-02T15:28:07.678Z,61.26
2022-09-02T15:30:35.875Z,60.20
2022-09-02T15:33:03.337Z,58.43
2022-09-02T15:35:32.098Z,58.17
2022-09-02T15:37:58.623Z,58.39
2022-09-02T15:40:25.149Z,58.50
2022-09-02T15:42:51.715Z,58.50
2022-09-02T15:45:18.496Z,58.58
2022-09-02T15:47:46.456Z,58.17
2022-09-02T15:50:14.315Z,58.31
2022-09-02T15:52:41.591Z,58.13
2022-09-02T15:55:08.782Z,58.06
2022-09-02T15:57:35.659Z,57.93
2022-09-02T16:00:06.788Z,57.90
2022-09-02T16:02:36.387Z,57.76
2022-09-02T16:05:04.716Z,57.83
2022-09-02T16:07:31.474Z,58.60
2022-09-02T16:10:03.187Z,59.50
2022-09-02T16:12:30.252Z,59.44
2022-09-02T16:14:56.751Z,59.60
2022-09-02T16:17:23.274Z,59.74
2022-09-02T16:19:49.809Z,60.16
2022-09-02T16:22:17.836Z,60.06
2022-09-02T16:24:44.369Z,60.31
2022-09-02T16:27:10.995Z,60.13
2022-09-02T16:29:37.604Z,60.34
2022-09-02T16:34:51.075Z,59.65
2022-09-02T16:37:18.946Z,58.43
2022-09-02T16:39:45.938Z,57.98
2022-09-02T16:42:12.588Z,58.23
2022-09-02T16:44:39.203Z,58.19
2022-09-02T16:47:05.906Z,58.19
2022-09-02T16:49:32.443Z,58.00
2022-09-02T16:51:58.956Z,57.93
2022-09-02T16:54:31.509Z,57.78
2022-09-02T16:57:00.628Z,57.41
2022-09-02T16:59:27.139Z,57.74
2022-09-02T17:01:53.801Z,57.58
2022-09-02T17:04:20.459Z,59.14
2022-09-02T17:06:46.974Z,60.24
2022-09-02T17:09:13.543Z,60.45
2022-09-02T17:11:41.515Z,60.32
2022-09-02T17:14:10.609Z,60.94
2022-09-02T17:16:39.205Z,61.09
2022-09-02T17:19:06.772Z,61.09
2022-09-02T17:21:35.911Z,61.31
2022-09-02T17:24:04.324Z,61.35
2022-09-02T17:26:32.797Z,61.41
2022-09-02T17:29:01.550Z,61.47
2022-09-02T17:31:29.793Z,60.42
2022-09-02T17:33:58.558Z,59.35
2022-09-02T17:36:26.732Z,58.24
2022-09-02T17:38:56.193Z,58.56
2022-09-02T17:41:22.787Z,58.50
2022-09-02T17:43:49.375Z,58.33
2022-09-02T17:46:17.291Z,58.21
2022-09-02T17:49:05.781Z,58.19
2022-09-02T17:51:30.470Z,58.08
2022-09-02T17:53:58.344Z,58.04
2022-09-02T17:56:53.208Z,60.15
2022-09-02T17:59:27.435Z,60.70
2022-09-02T18:02:11.737Z,60.83
2022-09-02T18:04:52.278Z,60.85
2022-09-02T18:07:28.807Z,61.25
2022-09-02T18:09:55.820Z,61.45
2022-09-02T18:12:22.353Z,61.62
2022-09-02T18:14:54.104Z,61.89
2022-09-02T18:17:29.734Z,62.00
2022-09-02T18:20:03.107Z,62.42
2022-09-02T18:22:52.501Z,62.00
2022-09-02T18:25:29.931Z,60.48
2022-09-02T18:28:07.749Z,59.91
2022-09-02T18:30:44.201Z,59.78
2022-09-02T18:33:29.534Z,59.46
2022-09-02T18:36:07.447Z,59.29
2022-09-02T18:38:42.989Z,58.88
2022-09-02T18:41:20.599Z,58.99
2022-09-02T18:44:03.171Z,58.55
2022-09-02T18:46:35.864Z,58.46
2022-09-02T18:49:06.344Z,58.43
2022-09-02T18:51:38.395Z,58.36
2022-09-02T18:54:13.849Z,60.95
2022-09-02T18:56:48.041Z,60.84
2022-09-02T18:59:21.389Z,61.08
2022-09-02T19:01:57.643Z,61.26
2022-09-02T19:04:29.222Z,61.45
2022-09-02T19:06:56.696Z,61.71
2022-09-02T19:09:25.565Z,61.90
2022-09-02T19:11:52.960Z,61.79
2022-09-02T19:14:25.639Z,61.60
2022-09-02T19:16:52.899Z,61.87
2022-09-02T19:19:19.727Z,61.97
2022-09-02T19:21:50.926Z,62.40
2022-09-02T19:24:20.696Z,60.94
2022-09-02T19:26:47.280Z,59.95
2022-09-02T19:29:16.364Z,59.62
2022-09-02T19:31:43.756Z,59.57
2022-09-02T19:34:10.682Z,59.88
2022-09-02T19:36:41.992Z,59.78
2022-09-02T19:39:09.845Z,59.58
2022-09-02T19:41:36.337Z,59.66
2022-09-02T19:44:03.167Z,61.33
2022-09-02T19:47:30.778Z,61.00
2022-09-02T19:49:16.310Z,61.13
2022-09-02T19:51:43.263Z,60.88
2022-09-02T19:54:13.510Z,61.08
2022-09-02T19:56:40.737Z,61.22
2022-09-02T19:59:07.582Z,61.22
2022-09-02T20:01:34.109Z,61.46
2022-09-02T20:04:00.661Z,61.37
2022-09-02T20:06:27.180Z,61.41
2022-09-02T20:08:53.704Z,61.45
2022-09-02T20:11:21.665Z,61.72
2022-09-02T20:13:48.214Z,61.12
2022-09-02T20:16:18.237Z,60.91
2022-09-02T20:18:44.906Z,60.53
2022-09-02T20:21:17.748Z,60.37
2022-09-02T20:23:44.342Z,61.16
2022-09-02T20:26:23.623Z,60.01
2022-09-02T20:29:07.293Z,61.34
2022-09-02T20:31:46.572Z,60.71
2022-09-02T20:34:22.556Z,60.58
2022-09-02T20:36:54.649Z,60.49
2022-09-02T20:39:38.937Z,60.59
2022-09-02T20:42:26.024Z,60.73
2022-09-02T20:45:01.334Z,60.94
2022-09-02T20:47:40.677Z,60.63
2022-09-02T20:50:27.990Z,60.75
2022-09-02T20:53:08.990Z,60.86
2022-09-02T20:55:39.171Z,61.09
2022-09-02T20:58:14.652Z,61.45
2022-09-02T21:00:50.259Z,60.37
2022-09-02T21:03:18.828Z,60.07
2022-09-02T21:05:50.387Z,60.01
2022-09-02T21:08:22.316Z,60.04
2022-09-02T21:10:54.250Z,60.21
2022-09-02T21:13:33.902Z,59.93
2022-09-02T21:16:07.751Z,60.65
2022-09-02T21:18:41.998Z,60.22
2022-09-02T21:21:20.499Z,59.93
2022-09-02T21:23:52.699Z,60.12
2022-09-02T21:26:25.179Z,59.95
2022-09-02T21:28:56.492Z,60.05
2022-09-02T21:31:30.801Z,60.24
2022-09-02T21:34:02.055Z,60.39
2022-09-02T21:36:29.143Z,60.32
2022-09-02T21:38:58.715Z,60.42
2022-09-02T21:41:31.248Z,60.49
2022-09-02T21:44:07.898Z,60.82
2022-09-02T21:46:46.314Z,60.08
2022-09-02T21:49:26.341Z,59.18
2022-09-02T21:52:01.949Z,60.07
2022-09-02T21:54:43.888Z,59.41
2022-09-02T21:57:24.902Z,59.77
2022-09-02T21:59:59.874Z,60.65
2022-09-02T22:02:37.601Z,59.86
2022-09-02T22:05:15.292Z,59.65
2022-09-02T22:07:47.625Z,59.47
2022-09-02T22:10:23.934Z,59.59
2022-09-02T22:12:52.632Z,59.62
2022-09-02T22:15:27.067Z,59.78
2022-09-02T22:18:02.269Z,59.80
2022-09-02T22:20:34.883Z,59.87
2022-09-02T22:23:05.394Z,59.73
2022-09-02T22:25:31.916Z,59.92
2022-09-02T22:28:06.529Z,59.92
2022-09-02T22:30:36.619Z,59.78
2022-09-02T22:33:09.980Z,59.70
2022-09-02T22:35:44.493Z,58.82
2022-09-02T22:38:17.393Z,60.06
2022-09-02T22:40:49.486Z,58.52
2022-09-02T22:43:31.367Z,59.52
2022-09-02T22:46:08.312Z,60.51
2022-09-02T22:48:40.412Z,59.91
2022-09-02T22:51:18.479Z,59.48
2022-09-02T22:53:45.630Z,59.46
2022-09-02T22:56:13.543Z,59.50
2022-09-02T22:59:00.148Z,59.55
2022-09-02T23:01:41.317Z,59.75
2022-09-02T23:04:23.828Z,59.76
2022-09-02T23:06:53.118Z,59.93
2022-09-02T23:09:19.755Z,59.93
2022-09-02T23:11:56.925Z,60.09
2022-09-02T23:14:33.892Z,60.33
2022-09-02T23:17:13.950Z,60.57
2022-09-02T23:19:58.220Z,60.30
2022-09-02T23:22:38.427Z,60.07
2022-09-02T23:25:21.087Z,59.69
2022-09-02T23:27:59.241Z,59.54
2022-09-02T23:30:25.795Z,59.85
2022-09-02T23:33:08.664Z,58.64
2022-09-02T23:35:43.674Z,61.13
2022-09-02T23:38:27.060Z,60.73
2022-09-02T23:40:59.238Z,60.59
2022-09-02T23:43:25.867Z,60.54
2022-09-02T23:45:53.853Z,60.34
2022-09-02T23:48:32.977Z,60.45
2022-09-02T23:51:11.634Z,60.54
2022-09-02T23:53:44.429Z,60.69
2022-09-02T23:56:29.786Z,60.87
2022-09-02T23:59:17.588Z,61.01
